EW6103 Weather Reports


time (UTC)temp
C
wind
direction
speed
KPH
gust
KPH
rain 1hr
cm
rain 24hr
cm
rain mn
cm
humidity
%
barometer
mb
20220629041006 17 180 3.2 6.4 0.00 0.51 0.28 95 1015.6
20220629040007 17 180 6.4 9.7 0.00 0.51 0.28 96 1016.1
20220629035007 18 180 3.2 4.8 0.00 0.51 0.28 96 1015.9
20220629033007 17 90 0.0 3.2 0.00 0.51 0.28 96 1015.6
20220629031007 17 180 0.0 1.6 0.00 0.51 0.28 96 1016.0
20220629025008 17 45 0.0 1.6 0.00 0.51 0.28 95 1015.8
20220629024008 17 180 0.0 3.2 0.00 0.51 0.28 95 1015.8
20220629022008 17 45 0.0 1.6 0.00 0.51 0.28 95 1015.9
20220629021008 17 45 1.6 3.2 0.00 0.51 0.28 95 1015.8
20220629020006 17 45 1.6 3.2 0.00 0.51 0.28 95 1015.7
20220629015007 17 45 0.0 1.6 0.00 0.56 0.28 95 1015.8
20220629014007 17 0 0.0 1.6 0.00 0.56 0.28 95 1016.1
20220629013007 17 45 0.0 1.6 0.00 0.56 0.28 95 1016.2
20220629012008 17 0 0.0 0.0 0.00 0.66 0.28 95 1016.4
20220629011010 17 45 0.0 3.2 0.00 0.71 0.28 95 1016.4
20220629010007 17 0 0.0 3.2 0.00 0.71 0.28 95 1016.4
20220629005006 17 270 0.0 0.0 0.00 0.71 0.28 95 1016.4
20220629004009 17 270 0.0 0.0 0.00 0.71 0.28 95 1016.4
20220629003006 17 270 0.0 0.0 0.00 0.71 0.28 95 1016.3
20220629002007 18 270 0.0 0.0 0.00 0.71 0.28 95 1016.4
20220629001009 17 270 0.0 0.0 0.00 0.71 0.28 95 1016.5
20220628235008 18 225 0.0 3.2 0.03 0.71 0.28 94 1016.3
20220628234007 18 0 0.0 3.2 0.03 0.71 0.28 94 1016.6
20220628233007 18 180 0.0 3.2 0.08 0.71 0.28 94 1016.2
20220628232007 18 45 0.0 1.6 0.10 0.71 0.28 94 1015.9
20220628231007 18 90 0.0 1.6 0.15 0.71 0.28 94 1016.3
20220628230008 18 90 0.0 3.2 0.23 0.71 0.28 93 1016.4
20220628225009 18 90 3.2 6.4 0.36 0.69 0.28 93 1016.5
20220628223007 18 45 1.6 6.4 0.43 0.64 0.20 93 1017.1
20220628222008 18 45 1.6 4.8 0.41 0.61 0.18 93 1017.5
20220628221007 18 45 1.6 9.7 0.36 0.56 0.13 92 1017.8
20220628220007 18 90 3.2 6.4 0.28 0.48 0.05 91 1018.3
20220628214009 20 180 1.6 6.4 0.00 0.20 0.20 78 1018.9
20220628213009 20 135 0.0 3.2 0.00 0.20 0.20 77 1018.5
20220628211007 20 270 0.0 0.0 0.00 0.20 0.20 78 1018.3
20220628210007 19 270 0.0 1.6 0.00 0.20 0.20 83 1018.2
20220628205008 19 180 1.6 3.2 0.00 0.20 0.20 83 1018.2
20220628204008 20 225 0.0 1.6 0.00 0.20 0.20 78 1018.0
20220628203007 20 45 0.0 1.6 0.00 0.20 0.20 78 1017.8
20220628202008 20 135 0.0 1.6 0.00 0.20 0.20 76 1018.0
20220628201009 21 90 0.0 3.2 0.00 0.20 0.20 74 1017.9
20220628200006 21 45 1.6 4.8 0.00 0.20 0.20 73 1017.9
20220628195006 21 45 1.6 3.2 0.00 0.20 0.20 72 1018.0
20220628194008 22 45 1.6 4.8 0.00 0.20 0.20 71 1018.0
20220628192007 22 0 3.2 6.4 0.00 0.20 0.20 68 1017.8
20220628191006 22 0 4.8 9.7 0.00 0.20 0.20 67 1017.7
20220628190007 22 45 6.4 12.9 0.00 0.20 0.20 67 1017.5
20220628185007 23 0 3.2 8.0 0.00 0.20 0.20 66 1017.5
20220628184011 23 45 3.2 8.0 0.00 0.20 0.20 65 1017.5
20220628182009 23 45 4.8 8.0 0.00 0.20 0.20 64 1017.5
20220628180008 24 0 3.2 8.0 0.00 0.20 0.20 63 1016.9
20220628175007 25 270 4.8 9.7 0.00 0.20 0.20 62 1016.8
20220628174007 25 315 6.4 11.3 0.00 0.20 0.20 61 1016.3
20220628172007 25 0 4.8 9.7 0.00 0.20 0.20 61 1016.3
20220628171007 25 45 4.8 8.0 0.00 0.20 0.20 61 1016.5
20220628165008 26 45 3.2 6.4 0.00 0.20 0.20 59 1016.6
20220628164006 26 45 3.2 6.4 0.00 0.20 0.20 57 1016.5
20220628162007 26 180 1.6 6.4 0.00 0.20 0.20 56 1016.9
20220628160007 25 180 4.8 8.0 0.00 0.20 0.20 60 1017.1
20220628155006 26 45 3.2 6.4 0.00 0.20 0.20 59 1017.2
20220628154008 26 0 1.6 6.4 0.00 0.20 0.20 59 1017.4
20220628153007 26 90 3.2 6.4 0.00 0.20 0.20 59 1017.3
20220628151008 26 45 4.8 8.0 0.00 0.20 0.20 58 1017.3
20220628150007 27 90 6.4 12.9 0.00 0.20 0.20 58 1017.4
20220628145008 26 45 6.4 11.3 0.00 0.20 0.20 59 1017.5
20220628144007 27 0 6.4 9.7 0.00 0.20 0.20 58 1017.7
20220628143007 26 45 6.4 9.7 0.00 0.20 0.20 60 1018.0
20220628140007 25 0 1.6 6.4 0.00 0.20 0.20 61 1018.2
20220628135007 25 180 1.6 4.8 0.00 0.20 0.20 62 1018.3
20220628134007 25 45 1.6 4.8 0.00 0.20 0.20 61 1018.6
20220628132007 25 180 3.2 6.4 0.00 0.20 0.20 61 1018.6
20220628131006 25 45 3.2 8.0 0.00 0.20 0.20 60 1018.2
20220628130008 26 0 4.8 8.0 0.00 0.20 0.20 59 1018.4
20220628125007 27 270 4.8 9.7 0.00 0.20 0.20 58 1018.4
20220628124007 26 180 4.8 8.0 0.00 0.20 0.20 56 1018.6
20220628123009 26 0 3.2 6.4 0.00 0.20 0.20 57 1018.6
20220628122008 27 180 4.8 8.0 0.00 0.20 0.20 56 1018.5
20220628121008 27 225 6.4 12.9 0.00 0.20 0.20 55 1018.5
20220628115009 27 270 11.3 17.7 0.00 0.20 0.20 58 1018.9
20220628113007 26 180 11.3 19.3 0.00 0.20 0.20 58 1019.1
20220628112008 26 270 9.7 17.7 0.00 0.20 0.20 59 1019.2
20220628111008 26 270 12.9 17.7 0.00 0.20 0.20 59 1019.1
20220628110007 26 0 14.5 20.9 0.00 0.20 0.20 59 1019.2
20220628105011 25 270 9.7 17.7 0.00 0.20 0.20 61 1019.0
20220628104007 26 180 14.5 20.9 0.00 0.20 0.20 59 1019.2
20220628103008 25 0 14.5 19.3 0.00 0.20 0.20 61 1019.2
20220628102007 26 180 11.3 19.3 0.00 0.20 0.20 59 1018.9
20220628100006 25 270 11.3 17.7 0.00 0.20 0.20 62 1019.0
20220628094006 25 270 12.9 17.7 0.00 0.20 0.20 59 1019.0
20220628093007 25 225 11.3 20.9 0.00 0.20 0.20 62 1019.0
20220628092006 25 180 8.0 17.7 0.00 0.20 0.20 63 1019.0
20220628091006 24 180 8.0 14.5 0.00 0.20 0.20 65 1018.9
20220628084006 24 45 11.3 17.7 0.00 0.20 0.20 69 1018.9
20220628083007 23 180 11.3 19.3 0.00 0.20 0.20 68 1018.9
20220628082007 23 180 12.9 17.7 0.00 0.20 0.20 71 1019.0
20220628081008 23 180 11.3 17.7 0.00 0.20 0.20 69 1018.9
20220628080008 24 180 12.9 19.3 0.00 0.20 0.20 70 1018.8
20220628075007 23 270 12.9 17.7 0.00 0.20 0.20 68 1018.7
20220628074008 23 270 8.0 17.7 0.00 0.20 0.20 69 1018.4
20220628073011 23 270 12.9 17.7 0.00 0.20 0.20 74 1018.5
20220628072007 23 180 8.0 12.9 0.00 0.20 0.20 73 1018.3
20220628071007 23 180 11.3 17.7 0.00 0.20 0.20 76 1018.3
20220628070006 22 180 12.9 19.3 0.00 0.20 0.20 77 1018.2
20220628065006 22 270 14.5 17.7 0.00 0.20 0.20 81 1018.0
20220628064007 21 180 12.9 17.7 0.00 0.20 0.20 83 1018.1
20220628063008 21 225 16.1 20.9 0.00 0.20 0.20 83 1018.0
20220628062007 21 270 11.3 16.1 0.00 0.20 0.20 83 1018.1
20220628061007 20 180 11.3 22.5 0.00 0.20 0.20 85 1018.1
20220628055007 20 180 9.7 16.1 0.00 0.20 0.20 86 1017.9
20220628053007 20 180 11.3 16.1 0.00 0.20 0.20 86 1017.8
20220628051006 20 270 9.7 12.9 0.00 0.20 0.20 88 1017.5
20220628050007 20 45 8.0 12.9 0.00 0.20 0.20 89 1017.4
20220628045006 20 270 1.6 6.4 0.00 0.20 0.20 89 1016.5
20220628043007 20 270 1.6 3.2 0.00 0.20 0.20 88 1016.1
20220628042006 20 225 1.6 3.2 0.00 0.20 0.20 89 1016.0